Date,TemperatureHighF,TemperatureAvgF,TemperatureLowF,DewpointHighF,DewpointAvgF,DewpointLowF,HumidityHigh,HumidityAvg,HumidityLow,PressureMaxIn,PressureMinIn,WindSpeedMaxMPH,WindSpeedAvgMPH,GustSpeedMaxMPH,PrecipitationSumIn
2012-10-8,74.1,62.3,54.4,56.0,53.8,51.0,88,75,53,30.09,30.02,2,0,5,0.00
2012-10-9,74.2,60.1,49.8,59.0,54.6,48.0,97,84,53,30.13,30.03,3,0,7,0.00
2012-10-10,80.0,64.8,51.8,63.0,58.5,51.0,98,82,50,30.16,30.06,5,0,9,0.00
2012-10-11,83.0,67.8,57.2,65.0,60.8,57.0,98,81,46,30.24,30.14,3,0,5,0.00
2012-10-12,85.8,71.2,57.3,66.0,63.0,57.0,98,78,45,30.26,30.17,4,0,6,0.00
2012-10-13,85.1,72.6,61.5,66.0,64.1,60.0,96,76,50,30.25,30.14,6,1,9,0.00
2012-10-14,83.3,71.8,64.2,71.0,66.4,63.0,97,84,60,30.18,29.99,7,1,10,0.00
2012-10-15,81.5,71.1,56.6,71.0,64.1,54.0,98,80,51,29.99,29.89,5,1,10,0.12
2012-10-16,74.7,61.2,48.4,56.0,50.8,45.0,98,72,36,29.99,29.86,5,0,9,0.00
2012-10-17,79.4,65.7,53.9,61.0,55.9,52.0,96,74,42,29.91,29.78,6,1,11,0.00
2012-10-18,79.8,66.7,59.0,69.0,61.3,47.0,98,84,57,29.87,29.72,3,1,7,0.65
2012-10-19,76.5,62.0,48.5,50.0,44.3,37.0,92,56,25,29.91,29.80,8,1,11,0.00
2012-10-20,75.9,59.2,44.5,52.0,47.5,43.0,95,69,36,29.99,29.88,5,0,9,0.00
2012-10-21,79.5,61.8,46.2,55.0,50.2,45.0,98,70,33,30.13,29.99,5,1,9,0.00
2012-10-22,80.9,64.6,51.5,58.0,52.8,49.0,90,69,35,30.17,30.06,6,1,10,0.00
2012-10-23,80.4,65.1,52.1,60.0,53.9,49.0,94,71,33,30.14,30.04,4,1,7,0.00
2012-10-24,82.0,67.9,57.0,65.0,59.6,56.0,97,77,48,30.13,30.00,6,1,9,0.00
2012-10-25,83.3,69.4,58.2,67.0,60.9,57.0,98,77,43,30.03,29.93,8,1,11,0.00
2012-10-26,84.1,70.3,60.4,68.0,62.2,60.0,98,77,48,29.99,29.87,5,1,9,0.00
2012-10-27,65.9,55.4,50.6,62.0,52.2,48.0,93,88,82,29.93,29.85,9,2,13,0.00
2012-10-28,64.0,54.2,46.5,48.0,44.9,38.0,94,73,51,29.99,29.85,6,2,18,0.00
2012-10-29,59.3,48.2,39.1,38.0,35.1,32.0,85,63,38,30.05,29.91,8,2,15,0.00
2012-10-30,63.5,46.5,35.0,38.0,33.1,28.0,87,64,29,29.98,29.88,13,2,16,0.00
2012-10-31,72.9,55.2,38.7,51.0,43.6,37.0,95,69,38,30.01,29.91,7,1,10,0.00
2012-11-1,72.7,58.2,45.4,52.0,45.3,34.0,97,67,32,30.06,29.95,5,1,8,0.00
2012-11-2,81.5,62.5,44.4,62.0,53.8,43.0,96,76,46,30.06,29.96,4,0,10,0.00
2012-11-3,84.5,69.0,58.6,66.0,61.4,58.0,99,80,46,30.11,30.02,4,0,8,0.00
2012-11-4,79.7,64.4,54.5,64.0,58.4,52.0,99,83,47,30.09,29.98,4,0,8,0.00
2012-11-5,71.6,55.8,41.8,52.0,45.2,34.0,97,74,26,30.08,29.91,5,1,13,0.08
2012-11-6,59.9,52.1,46.5,50.0,47.8,46.0,99,86,67,29.99,29.89,7,1,10,0.00
2012-11-7,63.7,52.2,42.0,47.0,41.5,36.0,98,70,39,30.10,29.91,6,1,10,0.00
2012-11-8,64.5,48.5,34.0,44.0,39.2,33.0,98,74,40,30.22,30.09,4,0,8,0.00
2012-11-9,71.7,52.7,36.2,46.0,40.2,35.0,97,68,31,30.30,30.18,4,0,6,0.00
2012-11-10,73.3,55.7,40.1,50.0,44.8,39.0,98,72,37,30.32,30.22,5,1,9,0.00
2012-11-11,75.6,60.3,46.5,55.0,50.9,42.0,97,74,47,30.31,30.20,13,2,17,0.00
2012-11-12,72.8,60.4,46.7,67.0,57.3,45.0,97,90,77,30.29,30.13,8,2,14,0.53
2012-11-13,60.5,47.0,36.6,45.0,35.8,32.0,96,69,36,30.34,30.22,5,1,12,0.00
2012-11-14,56.3,48.1,36.0,53.0,45.0,32.0,96,89,72,30.26,30.19,4,0,6,0.00
2012-11-15,53.2,48.5,41.2,50.0,45.9,41.0,98,91,80,30.26,30.19,2,0,7,0.00
2012-11-16,62.5,48.8,40.7,50.0,45.4,40.0,98,89,60,30.28,30.19,6,1,9,0.00
2012-11-17,63.4,49.3,38.3,46.0,40.6,38.0,98,75,42,30.34,30.24,7,1,10,0.00
2012-11-18,66.9,51.1,39.0,47.0,41.6,36.0,90,72,47,30.32,30.23,6,1,11,0.00
2012-11-19,69.3,53.2,41.7,53.0,46.1,41.0,98,79,50,30.27,30.15,4,0,7,0.00
2012-11-20,65.7,54.5,43.8,57.0,50.3,43.0,97,86,66,30.18,30.08,2,0,5,0.00
2012-11-21,73.5,57.3,45.0,53.0,48.9,44.0,95,76,44,30.17,30.09,5,1,8,0.00
2012-11-22,73.6,58.4,45.3,52.0,46.8,44.0,97,69,37,30.23,30.14,4,0,7,0.00
2012-11-23,73.6,59.2,45.5,55.0,49.8,45.0,97,74,40,30.23,30.09,5,1,11,0.00
2012-11-24,58.5,47.8,35.1,49.0,33.8,27.0,87,61,32,30.23,30.13,6,1,9,0.00
2012-11-25,63.1,44.6,27.2,36.0,27.2,20.0,92,57,20,30.23,30.09,6,0,7,0.00
2012-11-26,70.1,52.3,33.3,53.0,44.6,32.0,97,77,50,30.21,30.12,7,1,9,0.00
2012-11-27,61.6,57.6,50.0,61.0,56.4,49.0,98,95,87,30.24,30.08,4,1,10,0.37
2012-11-28,60.6,48.9,38.4,49.0,40.9,35.0,96,76,46,30.38,30.24,5,1,8,0.00
2012-11-29,58.2,44.4,34.7,47.0,41.4,34.0,99,90,64,30.40,30.28,5,0,9,0.00
2012-11-30,71.1,56.6,44.9,56.0,51.0,44.0,97,83,55,30.31,30.20,5,1,8,0.00
2012-12-1,74.8,58.6,48.7,58.0,51.5,48.0,99,80,46,30.30,30.21,8,1,11,0.00
2012-12-2,75.0,59.0,48.7,61.0,51.1,47.0,97,78,41,30.33,30.22,5,1,9,0.00
2012-12-3,76.5,61.0,49.6,61.0,54.2,49.0,98,81,49,30.28,30.18,10,1,16,0.00
2012-12-4,77.7,63.1,51.5,64.0,57.5,51.0,99,84,51,30.28,30.17,6,1,12,0.00
2012-12-5,73.9,61.5,50.4,60.0,55.7,50.0,99,83,55,30.19,30.06,4,1,8,0.00
2012-12-6,75.0,62.0,50.6,59.0,54.2,50.0,98,78,46,30.07,29.97,7,1,12,0.00
2012-12-7,64.2,60.4,56.2,60.0,58.2,55.0,98,92,86,30.03,29.94,7,2,9,0.00
2012-12-8,72.7,62.6,56.5,66.0,60.7,56.0,99,93,75,30.02,29.93,4,1,7,0.04
2012-12-9,74.8,65.0,58.7,65.0,61.9,59.0,99,90,65,30.08,29.93,6,1,11,0.00
2012-12-10,73.2,63.8,49.0,69.0,62.7,48.0,99,96,80,29.93,29.75,8,1,15,0.63
2012-12-11,48.8,44.0,40.4,48.0,40.9,37.0,98,89,76,30.14,29.90,5,1,7,0.00
2012-12-12,52.9,43.0,35.2,39.0,37.1,34.0,96,80,57,30.22,30.09,3,0,6,0.00
2012-12-13,61.9,46.5,34.6,46.0,40.8,34.0,98,82,53,30.31,30.21,6,0,10,0.00
2012-12-14,61.3,46.7,37.7,49.0,43.8,37.0,98,90,64,30.32,30.14,6,1,13,0.00
2012-12-15,66.9,54.3,43.9,59.0,51.5,43.0,98,91,72,30.17,30.02,6,1,7,0.00
2012-12-16,71.8,63.0,57.2,66.0,61.7,56.0,99,95,83,30.02,29.84,7,2,15,0.31
2012-12-17,63.2,59.3,57.1,63.0,58.9,56.0,100,98,94,29.88,29.73,7,1,11,1.74
2012-12-18,65.2,54.6,46.5,58.0,45.7,37.0,99,75,36,30.03,29.83,3,0,6,0.01
2012-12-19,71.4,55.4,39.1,55.0,47.3,39.0,99,78,40,30.09,29.97,8,2,11,0.00
2012-12-20,73.3,58.0,42.7,71.0,50.2,27.0,99,77,44,30.12,29.74,10,4,22,0.76
2012-12-21,52.6,41.2,29.9,28.0,21.1,15.0,78,48,23,30.30,30.12,7,2,17,0.00
2012-12-22,58.8,40.8,23.2,30.0,23.1,18.0,92,54,23,30.38,30.22,6,1,8,0.00
2012-12-23,56.4,44.3,31.6,45.0,36.7,28.0,92,76,45,30.24,30.03,4,1,6,0.00
2012-12-24,73.7,60.3,48.9,65.0,56.1,45.0,99,87,60,30.02,29.84,7,2,13,0.36
2012-12-25,68.9,62.6,57.6,66.0,61.8,55.0,99,97,90,29.90,29.55,11,3,19,1.97
2012-12-26,56.7,43.3,35.4,55.0,37.2,31.0,94,79,65,30.10,29.61,14,3,16,0.00
2012-12-27,49.5,38.1,33.2,35.0,32.6,30.0,95,81,58,30.16,30.06,5,1,9,0.00
2012-12-28,56.7,46.4,33.1,51.0,41.0,32.0,98,82,54,30.07,29.75,11,3,15,0.70
2012-12-29,52.8,42.6,34.1,53.0,37.4,27.0,99,82,67,30.33,29.76,13,3,19,0.00
2012-12-30,51.6,36.9,25.8,31.0,27.4,24.0,93,71,39,30.47,30.33,3,1,7,0.00
2012-12-31,59.4,46.8,31.4,51.0,40.9,28.0,91,80,69,30.36,30.12,5,1,7,0.00
2013-1-1,74.8,66.9,56.0,66.0,63.0,55.0,98,88,68,30.03,29.93,6,2,14,0.31